sensor_id;sensor_type;location;lat;lon;timestamp;P1;durP1;ratioP1;P2;durP2;ratioP2
34928;SDS011;21133;48.048;7.724;2022-12-01T00:00:59;10.30;;;9.13;;
34928;SDS011;21133;48.048;7.724;2022-12-01T00:03:26;11.40;;;10.20;;
34928;SDS011;21133;48.048;7.724;2022-12-01T00:06:01;8.47;;;7.67;;
34928;SDS011;21133;48.048;7.724;2022-12-01T00:08:27;8.77;;;7.97;;
34928;SDS011;21133;48.048;7.724;2022-12-01T00:10:53;9.87;;;8.87;;
34928;SDS011;21133;48.048;7.724;2022-12-01T00:13:20;10.23;;;9.10;;
34928;SDS011;21133;48.048;7.724;2022-12-01T00:15:46;12.43;;;9.90;;
34928;SDS011;21133;48.048;7.724;2022-12-01T00:18:12;8.73;;;7.93;;
34928;SDS011;21133;48.048;7.724;2022-12-01T00:20:38;8.20;;;7.40;;
34928;SDS011;21133;48.048;7.724;2022-12-01T00:23:04;9.70;;;8.27;;
34928;SDS011;21133;48.048;7.724;2022-12-01T00:25:30;12.97;;;8.73;;
34928;SDS011;21133;48.048;7.724;2022-12-01T00:27:56;13.40;;;9.73;;
34928;SDS011;21133;48.048;7.724;2022-12-01T00:30:22;10.87;;;8.50;;
34928;SDS011;21133;48.048;7.724;2022-12-01T00:32:48;10.93;;;9.00;;
34928;SDS011;21133;48.048;7.724;2022-12-01T00:35:15;9.37;;;7.40;;
34928;SDS011;21133;48.048;7.724;2022-12-01T00:37:41;8.40;;;7.60;;
34928;SDS011;21133;48.048;7.724;2022-12-01T00:40:07;9.57;;;8.10;;
34928;SDS011;21133;48.048;7.724;2022-12-01T00:42:33;8.60;;;7.70;;
34928;SDS011;21133;48.048;7.724;2022-12-01T00:44:59;11.27;;;9.53;;
34928;SDS011;21133;48.048;7.724;2022-12-01T00:47:25;10.93;;;8.50;;
34928;SDS011;21133;48.048;7.724;2022-12-01T00:49:51;10.90;;;8.17;;
34928;SDS011;21133;48.048;7.724;2022-12-01T00:52:18;9.33;;;8.43;;
34928;SDS011;21133;48.048;7.724;2022-12-01T00:54:44;8.10;;;7.40;;
34928;SDS011;21133;48.048;7.724;2022-12-01T00:57:10;9.90;;;9.00;;
34928;SDS011;21133;48.048;7.724;2022-12-01T00:59:36;8.80;;;7.90;;
34928;SDS011;21133;48.048;7.724;2022-12-01T01:02:03;10.30;;;7.77;;
34928;SDS011;21133;48.048;7.724;2022-12-01T01:04:29;8.47;;;7.63;;
34928;SDS011;21133;48.048;7.724;2022-12-01T01:06:55;8.70;;;7.60;;
34928;SDS011;21133;48.048;7.724;2022-12-01T01:09:21;8.97;;;7.97;;
34928;SDS011;21133;48.048;7.724;2022-12-01T01:11:47;6.70;;;6.10;;
34928;SDS011;21133;48.048;7.724;2022-12-01T01:14:13;8.87;;;7.97;;
34928;SDS011;21133;48.048;7.724;2022-12-01T01:16:39;8.33;;;7.50;;
34928;SDS011;21133;48.048;7.724;2022-12-01T01:19:05;11.03;;;8.23;;
34928;SDS011;21133;48.048;7.724;2022-12-01T01:21:31;9.00;;;8.07;;
34928;SDS011;21133;48.048;7.724;2022-12-01T01:23:57;8.30;;;7.50;;
34928;SDS011;21133;48.048;7.724;2022-12-01T01:26:25;8.50;;;7.00;;
34928;SDS011;21133;48.048;7.724;2022-12-01T01:28:51;7.63;;;7.03;;
34928;SDS011;21133;48.048;7.724;2022-12-01T01:31:18;9.10;;;8.13;;
34928;SDS011;21133;48.048;7.724;2022-12-01T01:33:47;8.23;;;7.43;;
34928;SDS011;21133;48.048;7.724;2022-12-01T01:36:13;8.37;;;7.47;;
34928;SDS011;21133;48.048;7.724;2022-12-01T01:38:40;7.13;;;6.53;;
34928;SDS011;21133;48.048;7.724;2022-12-01T01:41:06;7.87;;;7.17;;
34928;SDS011;21133;48.048;7.724;2022-12-01T01:46:29;7.07;;;6.43;;
34928;SDS011;21133;48.048;7.724;2022-12-01T01:48:56;7.10;;;5.53;;
34928;SDS011;21133;48.048;7.724;2022-12-01T01:53:57;5.60;;;5.20;;
34928;SDS011;21133;48.048;7.724;2022-12-01T01:56:24;11.70;;;6.77;;
34928;SDS011;21133;48.048;7.724;2022-12-01T01:58:51;7.30;;;6.60;;
34928;SDS011;21133;48.048;7.724;2022-12-01T02:01:17;11.27;;;7.27;;
34928;SDS011;21133;48.048;7.724;2022-12-01T02:03:43;8.20;;;7.37;;
34928;SDS011;21133;48.048;7.724;2022-12-01T02:06:09;8.90;;;8.00;;
34928;SDS011;21133;48.048;7.724;2022-12-01T02:08:36;7.60;;;6.90;;
34928;SDS011;21133;48.048;7.724;2022-12-01T02:11:26;8.50;;;7.10;;
34928;SDS011;21133;48.048;7.724;2022-12-01T02:22:09;8.07;;;6.93;;
34928;SDS011;21133;48.048;7.724;2022-12-01T02:24:51;9.90;;;7.53;;
34928;SDS011;21133;48.048;7.724;2022-12-01T02:30:12;10.13;;;7.43;;
34928;SDS011;21133;48.048;7.724;2022-12-01T02:38:24;11.80;;;9.00;;
34928;SDS011;21133;48.048;7.724;2022-12-01T02:40:59;7.93;;;7.10;;
34928;SDS011;21133;48.048;7.724;2022-12-01T02:43:31;12.60;;;8.80;;
34928;SDS011;21133;48.048;7.724;2022-12-01T02:45:59;13.23;;;8.47;;
34928;SDS011;21133;48.048;7.724;2022-12-01T02:50:54;12.50;;;8.70;;
34928;SDS011;21133;48.048;7.724;2022-12-01T02:53:20;12.20;;;8.43;;
34928;SDS011;21133;48.048;7.724;2022-12-01T02:55:53;14.73;;;9.50;;
34928;SDS011;21133;48.048;7.724;2022-12-01T02:58:20;14.20;;;8.83;;
34928;SDS011;21133;48.048;7.724;2022-12-01T03:06:03;14.37;;;10.27;;
34928;SDS011;21133;48.048;7.724;2022-12-01T03:08:42;10.00;;;7.97;;
34928;SDS011;21133;48.048;7.724;2022-12-01T03:11:10;16.23;;;9.10;;
34928;SDS011;21133;48.048;7.724;2022-12-01T03:16:24;13.07;;;8.73;;
34928;SDS011;21133;48.048;7.724;2022-12-01T03:18:53;13.07;;;10.00;;
34928;SDS011;21133;48.048;7.724;2022-12-01T03:21:25;13.80;;;10.53;;
34928;SDS011;21133;48.048;7.724;2022-12-01T03:24:03;14.93;;;9.47;;
34928;SDS011;21133;48.048;7.724;2022-12-01T03:26:30;16.87;;;10.27;;
34928;SDS011;21133;48.048;7.724;2022-12-01T03:28:59;13.30;;;9.37;;
34928;SDS011;21133;48.048;7.724;2022-12-01T03:31:27;12.67;;;8.77;;
34928;SDS011;21133;48.048;7.724;2022-12-01T03:34:00;11.87;;;9.90;;
34928;SDS011;21133;48.048;7.724;2022-12-01T03:36:29;15.43;;;10.00;;
34928;SDS011;21133;48.048;7.724;2022-12-01T03:38:58;10.90;;;8.37;;
34928;SDS011;21133;48.048;7.724;2022-12-01T03:41:26;14.53;;;8.93;;
34928;SDS011;21133;48.048;7.724;2022-12-01T03:43:58;17.43;;;9.33;;
34928;SDS011;21133;48.048;7.724;2022-12-01T03:46:41;11.53;;;7.83;;
34928;SDS011;21133;48.048;7.724;2022-12-01T03:49:09;14.93;;;8.67;;
34928;SDS011;21133;48.048;7.724;2022-12-01T03:51:39;13.27;;;9.50;;
34928;SDS011;21133;48.048;7.724;2022-12-01T03:56:45;15.80;;;8.77;;
34928;SDS011;21133;48.048;7.724;2022-12-01T03:59:12;10.73;;;8.53;;
34928;SDS011;21133;48.048;7.724;2022-12-01T04:01:38;9.10;;;7.93;;
34928;SDS011;21133;48.048;7.724;2022-12-01T04:04:08;11.37;;;7.60;;
34928;SDS011;21133;48.048;7.724;2022-12-01T04:06:35;13.27;;;7.53;;
34928;SDS011;21133;48.048;7.724;2022-12-01T04:09:02;11.97;;;8.93;;
34928;SDS011;21133;48.048;7.724;2022-12-01T04:11:28;10.67;;;7.67;;
34928;SDS011;21133;48.048;7.724;2022-12-01T04:14:13;10.60;;;6.40;;
34928;SDS011;21133;48.048;7.724;2022-12-01T04:16:39;9.33;;;6.80;;
34928;SDS011;21133;48.048;7.724;2022-12-01T04:19:05;9.53;;;7.23;;
34928;SDS011;21133;48.048;7.724;2022-12-01T04:21:31;10.53;;;8.30;;
34928;SDS011;21133;48.048;7.724;2022-12-01T04:23:57;11.50;;;7.07;;
34928;SDS011;21133;48.048;7.724;2022-12-01T04:26:30;8.07;;;6.67;;
34928;SDS011;21133;48.048;7.724;2022-12-01T04:28:57;8.30;;;7.20;;
34928;SDS011;21133;48.048;7.724;2022-12-01T04:31:23;8.60;;;6.90;;
34928;SDS011;21133;48.048;7.724;2022-12-01T04:33:49;8.87;;;6.83;;
34928;SDS011;21133;48.048;7.724;2022-12-01T04:36:15;8.73;;;7.10;;
34928;SDS011;21133;48.048;7.724;2022-12-01T04:38:41;9.67;;;6.63;;
34928;SDS011;21133;48.048;7.724;2022-12-01T04:41:07;10.00;;;7.57;;
34928;SDS011;21133;48.048;7.724;2022-12-01T04:43:34;7.80;;;6.50;;
34928;SDS011;21133;48.048;7.724;2022-12-01T04:46:00;8.10;;;7.30;;
34928;SDS011;21133;48.048;7.724;2022-12-01T04:48:26;8.47;;;6.70;;
34928;SDS011;21133;48.048;7.724;2022-12-01T04:50:52;8.27;;;7.00;;
34928;SDS011;21133;48.048;7.724;2022-12-01T04:53:18;6.57;;;5.97;;
34928;SDS011;21133;48.048;7.724;2022-12-01T04:55:44;5.97;;;5.40;;
34928;SDS011;21133;48.048;7.724;2022-12-01T04:58:10;7.57;;;5.40;;
34928;SDS011;21133;48.048;7.724;2022-12-01T05:00:36;6.47;;;5.83;;
34928;SDS011;21133;48.048;7.724;2022-12-01T05:03:02;8.87;;;6.40;;
34928;SDS011;21133;48.048;7.724;2022-12-01T05:05:28;6.20;;;5.67;;
34928;SDS011;21133;48.048;7.724;2022-12-01T05:07:54;5.37;;;4.90;;
34928;SDS011;21133;48.048;7.724;2022-12-01T05:10:20;7.30;;;5.10;;
34928;SDS011;21133;48.048;7.724;2022-12-01T05:12:46;6.57;;;5.60;;
34928;SDS011;21133;48.048;7.724;2022-12-01T05:15:12;9.00;;;5.40;;
34928;SDS011;21133;48.048;7.724;2022-12-01T05:17:38;5.63;;;5.13;;
34928;SDS011;21133;48.048;7.724;2022-12-01T05:20:05;7.90;;;6.00;;
34928;SDS011;21133;48.048;7.724;2022-12-01T05:22:49;6.70;;;5.87;;
34928;SDS011;21133;48.048;7.724;2022-12-01T05:25:16;15.17;;;6.40;;
34928;SDS011;21133;48.048;7.724;2022-12-01T05:27:43;8.00;;;6.90;;
34928;SDS011;21133;48.048;7.724;2022-12-01T05:30:09;7.20;;;6.50;;
34928;SDS011;21133;48.048;7.724;2022-12-01T05:32:35;6.37;;;5.57;;
34928;SDS011;21133;48.048;7.724;2022-12-01T05:35:01;5.87;;;5.40;;
34928;SDS011;21133;48.048;7.724;2022-12-01T05:37:27;6.30;;;5.77;;
34928;SDS011;21133;48.048;7.724;2022-12-01T05:39:57;10.27;;;7.63;;
34928;SDS011;21133;48.048;7.724;2022-12-01T05:42:23;7.63;;;6.93;;
34928;SDS011;21133;48.048;7.724;2022-12-01T05:44:49;10.30;;;6.77;;
34928;SDS011;21133;48.048;7.724;2022-12-01T05:47:15;9.33;;;6.70;;
34928;SDS011;21133;48.048;7.724;2022-12-01T05:49:41;7.40;;;6.70;;
34928;SDS011;21133;48.048;7.724;2022-12-01T05:52:07;7.40;;;6.67;;
34928;SDS011;21133;48.048;7.724;2022-12-01T05:54:34;10.27;;;7.00;;
34928;SDS011;21133;48.048;7.724;2022-12-01T05:57:00;8.00;;;6.77;;
34928;SDS011;21133;48.048;7.724;2022-12-01T05:59:26;12.20;;;7.00;;
34928;SDS011;21133;48.048;7.724;2022-12-01T06:01:52;8.40;;;6.50;;
34928;SDS011;21133;48.048;7.724;2022-12-01T06:04:18;8.17;;;7.47;;
34928;SDS011;21133;48.048;7.724;2022-12-01T06:06:44;6.60;;;6.00;;
34928;SDS011;21133;48.048;7.724;2022-12-01T06:09:09;7.70;;;6.50;;
34928;SDS011;21133;48.048;7.724;2022-12-01T06:11:35;10.07;;;8.23;;
34928;SDS011;21133;48.048;7.724;2022-12-01T06:14:01;8.00;;;6.73;;
34928;SDS011;21133;48.048;7.724;2022-12-01T06:16:27;6.77;;;6.17;;
34928;SDS011;21133;48.048;7.724;2022-12-01T06:18:53;7.57;;;6.70;;
34928;SDS011;21133;48.048;7.724;2022-12-01T06:21:19;8.63;;;7.47;;
34928;SDS011;21133;48.048;7.724;2022-12-01T06:23:46;6.43;;;5.80;;
34928;SDS011;21133;48.048;7.724;2022-12-01T06:26:12;10.97;;;7.20;;
34928;SDS011;21133;48.048;7.724;2022-12-01T06:28:38;7.67;;;6.73;;
34928;SDS011;21133;48.048;7.724;2022-12-01T06:31:04;9.07;;;7.07;;
34928;SDS011;21133;48.048;7.724;2022-12-01T06:33:30;12.17;;;7.60;;
34928;SDS011;21133;48.048;7.724;2022-12-01T06:35:57;8.93;;;8.07;;
34928;SDS011;21133;48.048;7.724;2022-12-01T06:38:23;11.63;;;7.50;;
34928;SDS011;21133;48.048;7.724;2022-12-01T06:40:49;12.60;;;8.47;;
34928;SDS011;21133;48.048;7.724;2022-12-01T06:43:15;8.17;;;6.73;;
34928;SDS011;21133;48.048;7.724;2022-12-01T06:45:41;6.97;;;6.17;;
34928;SDS011;21133;48.048;7.724;2022-12-01T06:48:07;9.23;;;7.97;;
34928;SDS011;21133;48.048;7.724;2022-12-01T06:50:33;9.10;;;8.20;;
34928;SDS011;21133;48.048;7.724;2022-12-01T06:52:59;10.33;;;7.43;;
34928;SDS011;21133;48.048;7.724;2022-12-01T06:55:25;7.80;;;6.53;;
34928;SDS011;21133;48.048;7.724;2022-12-01T06:57:51;8.47;;;7.40;;
34928;SDS011;21133;48.048;7.724;2022-12-01T07:00:17;9.37;;;6.50;;
34928;SDS011;21133;48.048;7.724;2022-12-01T07:02:43;8.43;;;7.50;;
34928;SDS011;21133;48.048;7.724;2022-12-01T07:05:09;9.30;;;6.97;;
34928;SDS011;21133;48.048;7.724;2022-12-01T07:07:36;15.60;;;7.20;;
34928;SDS011;21133;48.048;7.724;2022-12-01T07:10:02;14.20;;;7.43;;
34928;SDS011;21133;48.048;7.724;2022-12-01T07:12:31;8.47;;;6.80;;
34928;SDS011;21133;48.048;7.724;2022-12-01T07:14:57;12.03;;;7.80;;
34928;SDS011;21133;48.048;7.724;2022-12-01T07:17:23;8.87;;;7.30;;
34928;SDS011;21133;48.048;7.724;2022-12-01T07:19:49;13.33;;;7.53;;
34928;SDS011;21133;48.048;7.724;2022-12-01T07:22:15;10.00;;;7.97;;
34928;SDS011;21133;48.048;7.724;2022-12-01T07:24:41;9.77;;;7.73;;
34928;SDS011;21133;48.048;7.724;2022-12-01T07:27:07;10.00;;;7.77;;
34928;SDS011;21133;48.048;7.724;2022-12-01T07:29:33;11.37;;;8.13;;
34928;SDS011;21133;48.048;7.724;2022-12-01T07:31:59;8.20;;;7.37;;
34928;SDS011;21133;48.048;7.724;2022-12-01T07:34:25;10.87;;;9.10;;
34928;SDS011;21133;48.048;7.724;2022-12-01T07:36:51;12.30;;;9.00;;
34928;SDS011;21133;48.048;7.724;2022-12-01T07:39:17;11.50;;;8.93;;
34928;SDS011;21133;48.048;7.724;2022-12-01T07:41:43;9.77;;;8.23;;
34928;SDS011;21133;48.048;7.724;2022-12-01T07:44:09;8.87;;;7.97;;
34928;SDS011;21133;48.048;7.724;2022-12-01T07:46:35;15.30;;;8.57;;
34928;SDS011;21133;48.048;7.724;2022-12-01T07:49:04;10.40;;;8.47;;
34928;SDS011;21133;48.048;7.724;2022-12-01T07:51:30;11.70;;;8.80;;
34928;SDS011;21133;48.048;7.724;2022-12-01T07:53:59;10.10;;;9.03;;
34928;SDS011;21133;48.048;7.724;2022-12-01T07:56:26;11.40;;;6.90;;
34928;SDS011;21133;48.048;7.724;2022-12-01T07:58:52;9.97;;;7.03;;
34928;SDS011;21133;48.048;7.724;2022-12-01T08:01:18;13.33;;;9.30;;
34928;SDS011;21133;48.048;7.724;2022-12-01T08:03:46;11.50;;;9.23;;
34928;SDS011;21133;48.048;7.724;2022-12-01T08:06:12;8.60;;;7.40;;
34928;SDS011;21133;48.048;7.724;2022-12-01T08:08:39;12.53;;;8.70;;
34928;SDS011;21133;48.048;7.724;2022-12-01T08:11:12;14.20;;;9.70;;
34928;SDS011;21133;48.048;7.724;2022-12-01T08:13:39;9.70;;;8.40;;
34928;SDS011;21133;48.048;7.724;2022-12-01T08:16:06;10.43;;;9.33;;
34928;SDS011;21133;48.048;7.724;2022-12-01T08:18:36;11.93;;;9.40;;
34928;SDS011;21133;48.048;7.724;2022-12-01T08:21:03;10.20;;;9.07;;
34928;SDS011;21133;48.048;7.724;2022-12-01T08:23:30;11.70;;;8.53;;
34928;SDS011;21133;48.048;7.724;2022-12-01T08:25:59;10.97;;;8.20;;
34928;SDS011;21133;48.048;7.724;2022-12-01T08:28:25;13.30;;;9.03;;
34928;SDS011;21133;48.048;7.724;2022-12-01T08:30:51;11.50;;;9.33;;
34928;SDS011;21133;48.048;7.724;2022-12-01T08:33:17;11.13;;;9.90;;
34928;SDS011;21133;48.048;7.724;2022-12-01T08:35:43;10.40;;;8.80;;
34928;SDS011;21133;48.048;7.724;2022-12-01T08:38:09;10.63;;;9.43;;
34928;SDS011;21133;48.048;7.724;2022-12-01T08:40:36;15.77;;;9.10;;
34928;SDS011;21133;48.048;7.724;2022-12-01T08:43:02;12.23;;;9.07;;
34928;SDS011;21133;48.048;7.724;2022-12-01T08:45:28;11.83;;;9.10;;
34928;SDS011;21133;48.048;7.724;2022-12-01T08:47:54;14.40;;;10.47;;
34928;SDS011;21133;48.048;7.724;2022-12-01T08:50:23;14.80;;;9.60;;
34928;SDS011;21133;48.048;7.724;2022-12-01T08:52:49;13.60;;;9.97;;
34928;SDS011;21133;48.048;7.724;2022-12-01T08:55:15;14.10;;;10.30;;
34928;SDS011;21133;48.048;7.724;2022-12-01T08:57:41;12.60;;;9.40;;
34928;SDS011;21133;48.048;7.724;2022-12-01T09:00:07;28.20;;;10.77;;
34928;SDS011;21133;48.048;7.724;2022-12-01T09:02:34;10.40;;;9.17;;
34928;SDS011;21133;48.048;7.724;2022-12-01T09:05:00;12.53;;;10.70;;
34928;SDS011;21133;48.048;7.724;2022-12-01T09:07:26;11.00;;;8.83;;
34928;SDS011;21133;48.048;7.724;2022-12-01T09:09:52;11.10;;;9.33;;
34928;SDS011;21133;48.048;7.724;2022-12-01T09:12:18;15.90;;;9.80;;
34928;SDS011;21133;48.048;7.724;2022-12-01T09:14:44;13.20;;;9.30;;
34928;SDS011;21133;48.048;7.724;2022-12-01T09:17:12;11.83;;;9.50;;
34928;SDS011;21133;48.048;7.724;2022-12-01T09:19:38;17.97;;;12.43;;
34928;SDS011;21133;48.048;7.724;2022-12-01T09:22:04;10.67;;;9.10;;
34928;SDS011;21133;48.048;7.724;2022-12-01T09:24:30;13.48;;;10.90;;
34928;SDS011;21133;48.048;7.724;2022-12-01T09:26:57;14.23;;;10.57;;
34928;SDS011;21133;48.048;7.724;2022-12-01T09:29:23;14.90;;;10.00;;
34928;SDS011;21133;48.048;7.724;2022-12-01T09:31:50;12.00;;;9.57;;
34928;SDS011;21133;48.048;7.724;2022-12-01T09:34:16;14.80;;;10.23;;
34928;SDS011;21133;48.048;7.724;2022-12-01T09:36:43;17.00;;;10.80;;
34928;SDS011;21133;48.048;7.724;2022-12-01T09:39:17;16.07;;;10.03;;
34928;SDS011;21133;48.048;7.724;2022-12-01T09:41:45;13.03;;;10.23;;
34928;SDS011;21133;48.048;7.724;2022-12-01T09:44:18;13.90;;;8.97;;
34928;SDS011;21133;48.048;7.724;2022-12-01T09:46:55;13.70;;;9.43;;
34928;SDS011;21133;48.048;7.724;2022-12-01T09:49:26;14.83;;;10.17;;
34928;SDS011;21133;48.048;7.724;2022-12-01T09:51:53;15.77;;;10.17;;
34928;SDS011;21133;48.048;7.724;2022-12-01T09:54:20;10.77;;;8.80;;
34928;SDS011;21133;48.048;7.724;2022-12-01T09:56:47;14.93;;;10.37;;
34928;SDS011;21133;48.048;7.724;2022-12-01T09:59:21;16.50;;;10.23;;
34928;SDS011;21133;48.048;7.724;2022-12-01T10:01:51;12.47;;;9.47;;
34928;SDS011;21133;48.048;7.724;2022-12-01T10:04:24;14.63;;;10.23;;
34928;SDS011;21133;48.048;7.724;2022-12-01T10:11:54;20.77;;;11.70;;
34928;SDS011;21133;48.048;7.724;2022-12-01T10:14:22;15.10;;;10.30;;
34928;SDS011;21133;48.048;7.724;2022-12-01T10:19:41;11.70;;;9.43;;
34928;SDS011;21133;48.048;7.724;2022-12-01T10:25:00;13.07;;;10.33;;
34928;SDS011;21133;48.048;7.724;2022-12-01T10:32:25;16.40;;;9.40;;
34928;SDS011;21133;48.048;7.724;2022-12-01T10:34:54;17.20;;;9.13;;
34928;SDS011;21133;48.048;7.724;2022-12-01T10:37:21;11.77;;;9.33;;
34928;SDS011;21133;48.048;7.724;2022-12-01T10:39:49;14.40;;;9.60;;
34928;SDS011;21133;48.048;7.724;2022-12-01T10:44:48;14.60;;;9.40;;
34928;SDS011;21133;48.048;7.724;2022-12-01T10:47:17;17.03;;;10.23;;
34928;SDS011;21133;48.048;7.724;2022-12-01T10:49:44;16.90;;;10.67;;
34928;SDS011;21133;48.048;7.724;2022-12-01T10:52:28;16.23;;;11.53;;
34928;SDS011;21133;48.048;7.724;2022-12-01T10:54:55;16.33;;;11.73;;
34928;SDS011;21133;48.048;7.724;2022-12-01T10:57:21;16.57;;;11.20;;
34928;SDS011;21133;48.048;7.724;2022-12-01T10:59:59;14.37;;;9.63;;
34928;SDS011;21133;48.048;7.724;2022-12-01T11:02:26;15.70;;;9.93;;
34928;SDS011;21133;48.048;7.724;2022-12-01T11:04:57;23.67;;;10.57;;
34928;SDS011;21133;48.048;7.724;2022-12-01T11:07:27;13.87;;;9.70;;
34928;SDS011;21133;48.048;7.724;2022-12-01T11:09:59;14.80;;;11.03;;
34928;SDS011;21133;48.048;7.724;2022-12-01T11:12:27;18.60;;;11.77;;
34928;SDS011;21133;48.048;7.724;2022-12-01T11:14:53;12.50;;;9.40;;
34928;SDS011;21133;48.048;7.724;2022-12-01T11:17:27;17.87;;;9.87;;
34928;SDS011;21133;48.048;7.724;2022-12-01T11:19:54;17.27;;;11.90;;
34928;SDS011;21133;48.048;7.724;2022-12-01T11:22:24;13.30;;;10.47;;
34928;SDS011;21133;48.048;7.724;2022-12-01T11:27:21;14.77;;;10.37;;
34928;SDS011;21133;48.048;7.724;2022-12-01T11:29:48;13.57;;;9.53;;
34928;SDS011;21133;48.048;7.724;2022-12-01T11:32:25;12.93;;;9.97;;
34928;SDS011;21133;48.048;7.724;2022-12-01T11:37:37;23.93;;;10.60;;
34928;SDS011;21133;48.048;7.724;2022-12-01T11:40:08;15.07;;;10.47;;
34928;SDS011;21133;48.048;7.724;2022-12-01T11:42:38;17.37;;;13.17;;
34928;SDS011;21133;48.048;7.724;2022-12-01T11:47:31;14.17;;;10.40;;
34928;SDS011;21133;48.048;7.724;2022-12-01T11:50:01;13.40;;;10.13;;
34928;SDS011;21133;48.048;7.724;2022-12-01T11:52:33;13.00;;;9.87;;
34928;SDS011;21133;48.048;7.724;2022-12-01T11:57:39;17.17;;;10.17;;
34928;SDS011;21133;48.048;7.724;2022-12-01T12:00:15;15.70;;;11.40;;
34928;SDS011;21133;48.048;7.724;2022-12-01T12:12:59;14.00;;;10.80;;
34928;SDS011;21133;48.048;7.724;2022-12-01T12:15:41;15.07;;;10.00;;
34928;SDS011;21133;48.048;7.724;2022-12-01T12:18:15;16.60;;;11.60;;
34928;SDS011;21133;48.048;7.724;2022-12-01T12:20:51;19.40;;;12.30;;
34928;SDS011;21133;48.048;7.724;2022-12-01T12:23:29;16.27;;;11.10;;
34928;SDS011;21133;48.048;7.724;2022-12-01T12:26:05;13.20;;;11.17;;
34928;SDS011;21133;48.048;7.724;2022-12-01T12:41:35;16.20;;;10.40;;
34928;SDS011;21133;48.048;7.724;2022-12-01T12:51:48;17.63;;;9.77;;
34928;SDS011;21133;48.048;7.724;2022-12-01T12:54:26;12.40;;;9.30;;
34928;SDS011;21133;48.048;7.724;2022-12-01T12:56:56;18.60;;;9.60;;
34928;SDS011;21133;48.048;7.724;2022-12-01T12:59:25;12.90;;;9.47;;
34928;SDS011;21133;48.048;7.724;2022-12-01T13:01:55;12.37;;;9.20;;
34928;SDS011;21133;48.048;7.724;2022-12-01T13:04:24;12.40;;;9.90;;
34928;SDS011;21133;48.048;7.724;2022-12-01T13:07:35;14.13;;;10.50;;
34928;SDS011;21133;48.048;7.724;2022-12-01T13:09:42;14.40;;;9.70;;
34928;SDS011;21133;48.048;7.724;2022-12-01T13:12:13;11.50;;;10.10;;
34928;SDS011;21133;48.048;7.724;2022-12-01T13:14:48;13.30;;;10.10;;
34928;SDS011;21133;48.048;7.724;2022-12-01T13:19:41;12.30;;;10.27;;
34928;SDS011;21133;48.048;7.724;2022-12-01T13:22:09;14.97;;;9.87;;
34928;SDS011;21133;48.048;7.724;2022-12-01T13:24:36;11.07;;;9.90;;
34928;SDS011;21133;48.048;7.724;2022-12-01T13:27:04;11.90;;;9.80;;
34928;SDS011;21133;48.048;7.724;2022-12-01T13:29:32;15.82;;;11.90;;
34928;SDS011;21133;48.048;7.724;2022-12-01T13:31:59;16.07;;;11.37;;
34928;SDS011;21133;48.048;7.724;2022-12-01T13:34:36;18.97;;;12.23;;
34928;SDS011;21133;48.048;7.724;2022-12-01T13:37:03;13.93;;;8.70;;
34928;SDS011;21133;48.048;7.724;2022-12-01T13:39:29;13.17;;;9.43;;
34928;SDS011;21133;48.048;7.724;2022-12-01T13:44:49;13.63;;;9.97;;
34928;SDS011;21133;48.048;7.724;2022-12-01T13:49:43;11.87;;;9.33;;
34928;SDS011;21133;48.048;7.724;2022-12-01T13:54:58;9.27;;;8.33;;
34928;SDS011;21133;48.048;7.724;2022-12-01T13:57:25;11.90;;;9.53;;
34928;SDS011;21133;48.048;7.724;2022-12-01T14:02:24;15.30;;;10.50;;
34928;SDS011;21133;48.048;7.724;2022-12-01T14:04:50;18.73;;;10.70;;
34928;SDS011;21133;48.048;7.724;2022-12-01T14:07:21;12.17;;;9.97;;
34928;SDS011;21133;48.048;7.724;2022-12-01T14:09:51;14.00;;;10.13;;
34928;SDS011;21133;48.048;7.724;2022-12-01T14:12:23;17.13;;;9.20;;
34928;SDS011;21133;48.048;7.724;2022-12-01T14:14:55;18.23;;;9.67;;
34928;SDS011;21133;48.048;7.724;2022-12-01T14:17:24;10.47;;;9.30;;
34928;SDS011;21133;48.048;7.724;2022-12-01T14:19:50;17.63;;;10.97;;
34928;SDS011;21133;48.048;7.724;2022-12-01T14:22:33;14.50;;;9.80;;
34928;SDS011;21133;48.048;7.724;2022-12-01T14:25:02;12.83;;;10.43;;
34928;SDS011;21133;48.048;7.724;2022-12-01T14:32:47;16.20;;;10.90;;
34928;SDS011;21133;48.048;7.724;2022-12-01T14:35:13;13.10;;;9.80;;
34928;SDS011;21133;48.048;7.724;2022-12-01T14:37:41;12.67;;;9.10;;
34928;SDS011;21133;48.048;7.724;2022-12-01T14:40:12;13.13;;;10.20;;
34928;SDS011;21133;48.048;7.724;2022-12-01T14:42:38;18.50;;;10.47;;
34928;SDS011;21133;48.048;7.724;2022-12-01T14:48:17;16.03;;;10.57;;
34928;SDS011;21133;48.048;7.724;2022-12-01T14:50:48;15.70;;;10.00;;
34928;SDS011;21133;48.048;7.724;2022-12-01T14:53:20;11.80;;;9.90;;
34928;SDS011;21133;48.048;7.724;2022-12-01T14:56:29;11.10;;;8.73;;
34928;SDS011;21133;48.048;7.724;2022-12-01T14:58:36;15.80;;;8.97;;
34928;SDS011;21133;48.048;7.724;2022-12-01T15:01:06;12.83;;;10.33;;
34928;SDS011;21133;48.048;7.724;2022-12-01T15:04:15;11.40;;;9.47;;
34928;SDS011;21133;48.048;7.724;2022-12-01T15:06:23;13.20;;;8.67;;
34928;SDS011;21133;48.048;7.724;2022-12-01T15:11:35;15.13;;;10.97;;
34928;SDS011;21133;48.048;7.724;2022-12-01T15:14:03;15.53;;;10.73;;
34928;SDS011;21133;48.048;7.724;2022-12-01T15:16:44;14.43;;;10.60;;
34928;SDS011;21133;48.048;7.724;2022-12-01T15:21:55;12.97;;;10.20;;
34928;SDS011;21133;48.048;7.724;2022-12-01T15:24:22;20.83;;;10.00;;
34928;SDS011;21133;48.048;7.724;2022-12-01T15:26:50;13.47;;;8.07;;
34928;SDS011;21133;48.048;7.724;2022-12-01T15:29:21;12.53;;;8.80;;
34928;SDS011;21133;48.048;7.724;2022-12-01T15:31:49;14.00;;;10.37;;
34928;SDS011;21133;48.048;7.724;2022-12-01T15:34:18;13.23;;;9.63;;
34928;SDS011;21133;48.048;7.724;2022-12-01T15:36:45;16.20;;;9.90;;
34928;SDS011;21133;48.048;7.724;2022-12-01T15:39:13;13.13;;;10.60;;
34928;SDS011;21133;48.048;7.724;2022-12-01T15:41:40;13.73;;;11.07;;
34928;SDS011;21133;48.048;7.724;2022-12-01T15:44:26;13.60;;;9.50;;
34928;SDS011;21133;48.048;7.724;2022-12-01T15:46:53;10.63;;;9.53;;
34928;SDS011;21133;48.048;7.724;2022-12-01T15:51:45;11.40;;;10.20;;
34928;SDS011;21133;48.048;7.724;2022-12-01T15:54:22;16.13;;;10.47;;
34928;SDS011;21133;48.048;7.724;2022-12-01T15:56:50;14.17;;;8.67;;
34928;SDS011;21133;48.048;7.724;2022-12-01T16:01:48;17.10;;;11.43;;
34928;SDS011;21133;48.048;7.724;2022-12-01T16:04:18;14.33;;;10.00;;
34928;SDS011;21133;48.048;7.724;2022-12-01T16:07:18;14.00;;;10.47;;
34928;SDS011;21133;48.048;7.724;2022-12-01T16:09:38;9.73;;;8.23;;
34928;SDS011;21133;48.048;7.724;2022-12-01T16:14:34;12.87;;;9.53;;
34928;SDS011;21133;48.048;7.724;2022-12-01T16:17:01;13.80;;;9.40;;
34928;SDS011;21133;48.048;7.724;2022-12-01T16:19:28;11.07;;;8.30;;
34928;SDS011;21133;48.048;7.724;2022-12-01T16:21:56;14.23;;;10.37;;
34928;SDS011;21133;48.048;7.724;2022-12-01T16:24:33;16.27;;;10.80;;
34928;SDS011;21133;48.048;7.724;2022-12-01T16:27:04;12.77;;;9.50;;
34928;SDS011;21133;48.048;7.724;2022-12-01T16:29:33;13.93;;;8.70;;
34928;SDS011;21133;48.048;7.724;2022-12-01T16:32:21;15.53;;;11.70;;
34928;SDS011;21133;48.048;7.724;2022-12-01T16:34:46;15.43;;;10.57;;
34928;SDS011;21133;48.048;7.724;2022-12-01T16:37:12;16.57;;;10.77;;
34928;SDS011;21133;48.048;7.724;2022-12-01T16:39:39;17.30;;;10.30;;
34928;SDS011;21133;48.048;7.724;2022-12-01T16:42:05;12.77;;;9.63;;
34928;SDS011;21133;48.048;7.724;2022-12-01T16:44:31;13.70;;;11.10;;
34928;SDS011;21133;48.048;7.724;2022-12-01T16:46:56;14.50;;;10.63;;
34928;SDS011;21133;48.048;7.724;2022-12-01T16:49:23;11.40;;;9.47;;
34928;SDS011;21133;48.048;7.724;2022-12-01T16:51:49;14.23;;;10.27;;